Time;durP1;ratioP1;P1;durP2;ratioP2;P2;SDS_P1;SDS_P2;PMS_P1;PMS_P2;Temp;Humidity;BMP_temperature;BMP_pressure;BME280_temperature;BME280_humidity;BME280_pressure;Samples;Min_cycle;Max_cycle;Signal;HPM_P1;HPM_P2
2022/07/06 00:02:22;;;;;;;7.72;4.30;;;;;;;24.53;58.18;99294.94;5049323;28;20196;-57
2022/07/06 00:04:50;;;;;;;5.72;4.22;;;;;;;24.56;58.12;99293.84;5049385;28;20201;-56
2022/07/06 00:07:17;;;;;;;4.40;4.03;;;;;;;24.62;58.06;99295.94;5049330;28;20200;-56
2022/07/06 00:09:44;;;;;;;4.97;4.57;;;;;;;24.69;57.85;99288.28;5049098;28;20240;-56
2022/07/06 00:12:11;;;;;;;7.13;4.22;;;;;;;24.74;57.71;99286.88;5049089;28;20328;-56
2022/07/06 00:14:38;;;;;;;8.73;5.40;;;;;;;24.83;58.12;99279.91;5049080;28;20197;-55
2022/07/06 00:17:05;;;;;;;11.52;6.03;;;;;;;24.81;59.74;99271.22;5046712;28;20227;-55
2022/07/06 00:19:32;;;;;;;8.75;6.45;;;;;;;24.84;60.60;99277.06;5049242;28;20193;-54
2022/07/06 00:22:00;;;;;;;8.50;7.25;;;;;;;24.78;61.58;99277.66;5049254;28;20224;-55
2022/07/06 00:24:27;;;;;;;11.75;7.22;;;;;;;24.84;62.22;99271.78;5049754;28;20197;-55
2022/07/06 00:26:54;;;;;;;7.90;7.20;;;;;;;24.64;63.91;99278.06;5048889;28;20201;-55
2022/07/06 00:29:21;;;;;;;8.43;7.15;;;;;;;24.48;64.97;99268.00;5048879;28;20310;-59
2022/07/06 00:31:48;;;;;;;8.45;7.25;;;;;;;24.43;65.85;99262.28;5049012;28;20267;-58
2022/07/06 00:34:15;;;;;;;8.02;7.22;;;;;;;24.35;66.50;99263.94;5049090;28;20212;-59
2022/07/06 00:36:42;;;;;;;7.97;7.32;;;;;;;24.31;66.56;99252.75;5049645;28;20671;-59
2022/07/06 00:39:10;;;;;;;7.90;7.07;;;;;;;24.26;66.76;99255.00;5052611;28;20198;-59
2022/07/06 00:41:37;;;;;;;11.00;7.35;;;;;;;24.11;67.09;99245.72;5052619;28;20201;-59
2022/07/06 00:44:08;;;;;;;7.38;6.65;;;;;;;24.13;67.68;99246.44;5052672;28;20205;-59
2022/07/06 00:46:35;;;;;;;7.30;6.75;;;;;;;24.10;67.86;99246.69;5052609;28;20200;-58
2022/07/06 00:49:02;;;;;;;7.80;6.93;;;;;;;24.03;68.19;99240.25;5053197;28;20220;-58
2022/07/06 00:51:31;;;;;;;9.85;6.95;;;;;;;24.10;68.29;99250.19;5052584;28;20311;-58
2022/07/06 00:54:01;;;;;;;10.45;7.10;;;;;;;24.11;68.33;99241.25;5052418;28;20196;-59
2022/07/06 00:56:32;;;;;;;9.32;6.50;;;;;;;24.13;68.22;99233.16;5052386;28;20203;-59
2022/07/06 00:59:00;;;;;;;9.82;6.60;;;;;;;24.14;68.58;99227.72;5052878;28;20212;-58
2022/07/06 01:01:26;;;;;;;7.60;6.50;;;;;;;24.08;68.68;99217.66;5052379;28;20196;-59
2022/07/06 01:03:54;;;;;;;6.82;6.30;;;;;;;24.03;69.17;99209.28;5052395;28;20200;-59
2022/07/06 01:06:20;;;;;;;8.75;7.38;;;;;;;23.93;69.71;99215.53;5052148;28;20215;-57
2022/07/06 01:08:48;;;;;;;7.55;6.72;;;;;;;23.86;69.92;99207.28;5052187;28;20216;-59
2022/07/06 01:11:15;;;;;;;10.32;6.53;;;;;;;23.92;69.63;99198.81;5052369;28;20215;-58
2022/07/06 01:13:43;;;;;;;9.18;6.78;;;;;;;23.87;69.53;99193.91;5052224;28;20283;-55
2022/07/06 01:16:11;;;;;;;7.78;6.68;;;;;;;23.93;69.56;99178.44;5052027;28;20200;-55
2022/07/06 01:18:38;;;;;;;7.18;6.38;;;;;;;24.01;69.30;99181.22;5051851;28;20703;-55
2022/07/06 01:21:09;;;;;;;7.40;6.68;;;;;;;24.11;68.81;99180.25;5052056;28;20681;-55
2022/07/06 01:23:41;;;;;;;9.43;6.90;;;;;;;24.13;68.25;99178.31;5052004;28;20204;-55
2022/07/06 01:26:10;;;;;;;9.93;6.70;;;;;;;24.12;68.74;99167.84;5051890;28;20207;-57
2022/07/06 01:28:37;;;;;;;7.03;6.47;;;;;;;23.93;69.12;99157.22;5056611;28;20218;-55
2022/07/06 01:31:04;;;;;;;7.32;6.55;;;;;;;23.79;69.48;99151.34;5068675;28;20210;-56
2022/07/06 01:33:32;;;;;;;6.78;6.20;;;;;;;23.78;70.08;99154.97;5071794;28;20200;-55
2022/07/06 01:35:59;;;;;;;7.60;6.35;;;;;;;23.76;69.96;99150.75;5071772;28;20203;-56
2022/07/06 01:38:27;;;;;;;7.00;6.43;;;;;;;23.78;69.86;99147.00;5071463;28;20291;-55
2022/07/06 01:40:54;;;;;;;8.85;5.93;;;;;;;23.79;69.52;99148.69;5071797;28;20654;-56
2022/07/06 01:43:21;;;;;;;7.35;6.63;;;;;;;23.76;70.15;99146.31;5071550;28;20279;-55
2022/07/06 01:45:48;;;;;;;7.78;7.03;;;;;;;23.74;70.51;99142.94;5071573;28;20203;-56
2022/07/06 01:48:15;;;;;;;6.85;6.35;;;;;;;23.76;70.58;99126.91;5070962;28;20257;-56
2022/07/06 01:50:42;;;;;;;7.32;6.57;;;;;;;23.74;70.82;99132.34;5071440;28;20283;-56
2022/07/06 01:53:09;;;;;;;7.10;6.53;;;;;;;23.68;70.75;99132.06;5071512;28;20238;-56
2022/07/06 01:55:37;;;;;;;12.15;6.68;;;;;;;23.76;70.02;99129.56;5071523;28;20208;-58
2022/07/06 01:58:04;;;;;;;7.60;6.40;;;;;;;23.81;69.98;99137.94;5071867;28;20203;-59
2022/07/06 02:00:31;;;;;;;6.95;6.43;;;;;;;23.79;69.59;99124.84;5071174;28;20199;-56
2022/07/06 02:02:58;;;;;;;6.40;5.90;;;;;;;23.83;69.64;99122.72;5071683;28;20582;-56
2022/07/06 02:05:24;;;;;;;7.43;6.28;;;;;;;23.89;69.83;99111.59;5071196;28;20210;-60
2022/07/06 02:07:51;;;;;;;9.18;6.75;;;;;;;23.88;69.54;99116.06;5071250;28;20593;-56
2022/07/06 02:10:18;;;;;;;7.93;7.15;;;;;;;23.94;69.22;99117.28;5071001;28;20232;-60
2022/07/06 02:12:48;;;;;;;6.75;6.25;;;;;;;23.94;69.07;99111.16;5071105;28;20214;-56
2022/07/06 02:15:14;;;;;;;8.20;6.35;;;;;;;23.99;68.81;99109.78;5070920;28;20292;-56
2022/07/06 02:17:41;;;;;;;7.43;6.82;;;;;;;24.05;68.65;99113.66;5070945;28;20564;-56
2022/07/06 02:20:09;;;;;;;10.48;7.05;;;;;;;23.94;69.35;99104.03;5071086;28;20192;-59
2022/07/06 02:22:36;;;;;;;8.98;6.32;;;;;;;23.92;69.65;99108.66;5070876;28;20199;-59
2022/07/06 02:25:04;;;;;;;11.85;6.82;;;;;;;23.85;70.45;99107.53;5071274;28;20709;-60
2022/07/06 02:27:31;;;;;;;10.82;7.55;;;;;;;23.70;71.74;99103.63;5070636;28;20671;-57
2022/07/06 02:29:59;;;;;;;10.00;8.80;;;;;;;23.66;72.09;99100.41;5070623;28;20223;-55
2022/07/06 02:32:26;;;;;;;9.15;8.27;;;;;;;23.62;72.49;99101.63;5057398;28;20193;-59
2022/07/06 02:34:53;;;;;;;10.93;8.40;;;;;;;23.67;72.67;99101.25;5057905;28;20641;-60
2022/07/06 02:37:20;;;;;;;13.52;8.95;;;;;;;23.63;72.73;99108.63;5055520;28;20228;-60
2022/07/06 02:39:47;;;;;;;18.40;9.55;;;;;;;23.62;72.89;99109.59;5059233;28;20198;-59
2022/07/06 02:42:14;;;;;;;12.75;9.32;;;;;;;23.62;73.02;99114.88;5059965;28;20205;-56
2022/07/06 02:44:41;;;;;;;14.60;9.93;;;;;;;23.55;73.15;99113.75;5060119;28;20585;-56
2022/07/06 02:47:09;;;;;;;16.27;10.23;;;;;;;23.56;73.01;99125.19;5059370;28;20200;-56
2022/07/06 02:49:36;;;;;;;18.85;10.95;;;;;;;23.48;72.59;99120.53;5058006;28;20212;-56
2022/07/06 02:52:03;;;;;;;14.90;10.32;;;;;;;23.52;73.26;99121.97;5059472;28;20261;-56
2022/07/06 02:54:30;;;;;;;12.50;10.00;;;;;;;23.50;73.70;99111.50;5057457;28;20204;-59
2022/07/06 02:56:57;;;;;;;12.70;9.52;;;;;;;23.49;74.14;99128.34;5060140;28;20199;-59
2022/07/06 02:59:24;;;;;;;11.35;8.88;;;;;;;23.45;74.11;99126.94;5056799;28;20208;-60
2022/07/06 03:01:51;;;;;;;14.45;9.13;;;;;;;23.49;74.28;99138.94;5054898;28;20196;-56
2022/07/06 03:04:19;;;;;;;10.88;9.02;;;;;;;23.45;74.37;99137.56;5046875;28;20284;-56
2022/07/06 03:06:46;;;;;;;11.35;8.35;;;;;;;23.47;73.99;99140.06;5057735;28;20203;-56
2022/07/06 03:09:13;;;;;;;10.90;8.40;;;;;;;23.52;73.51;99140.50;5059610;28;20694;-56
2022/07/06 03:11:40;;;;;;;11.82;8.50;;;;;;;23.58;73.52;99144.47;5058145;28;20196;-56
2022/07/06 03:14:07;;;;;;;16.88;8.13;;;;;;;23.62;73.47;99138.72;5058611;28;20664;-56
2022/07/06 03:16:34;;;;;;;9.73;8.77;;;;;;;23.63;74.01;99140.41;5059901;28;20199;-56
2022/07/06 03:19:01;;;;;;;11.98;8.70;;;;;;;23.65;73.44;99142.94;5058036;28;20192;-59
2022/07/06 03:21:29;;;;;;;15.70;12.10;;;;;;;23.79;72.68;99153.97;5058024;28;20206;-59
2022/07/06 03:23:56;;;;;;;11.48;9.07;;;;;;;23.86;72.43;99152.44;5059235;28;20279;-59
2022/07/06 03:26:23;;;;;;;13.00;7.78;;;;;;;23.89;71.41;99148.69;5058403;28;20216;-59
2022/07/06 03:28:50;;;;;;;13.63;7.68;;;;;;;23.95;71.30;99157.91;5056792;28;20589;-59
2022/07/06 03:31:17;;;;;;;8.63;7.43;;;;;;;24.02;70.44;99161.69;5051391;28;20207;-59
2022/07/06 03:33:44;;;;;;;13.32;8.10;;;;;;;24.12;69.63;99160.72;5047291;28;20204;-59
2022/07/06 03:36:11;;;;;;;19.25;9.77;;;;;;;24.17;69.71;99169.09;5048372;28;20207;-55
2022/07/06 03:38:39;;;;;;;10.27;8.88;;;;;;;24.26;69.16;99166.63;5056812;28;20260;-55
2022/07/06 03:41:06;;;;;;;9.77;6.75;;;;;;;24.32;68.88;99166.91;5057332;28;20283;-55
2022/07/06 03:43:33;;;;;;;11.50;7.35;;;;;;;24.46;68.70;99166.50;5058164;28;20243;-55
2022/07/06 03:46:00;;;;;;;11.00;7.35;;;;;;;24.67;67.23;99171.63;5046037;28;20295;-55
2022/07/06 03:48:27;;;;;;;7.78;6.97;;;;;;;24.81;66.57;99165.03;5043614;28;20203;-55
2022/07/06 03:50:55;;;;;;;11.13;6.75;;;;;;;24.83;66.18;99163.09;5054789;28;20314;-55
2022/07/06 03:53:22;;;;;;;7.15;6.57;;;;;;;25.05;64.36;99173.41;5055614;28;20215;-55
2022/07/06 03:58:31;;;;;;;9.00;8.20;;;;;;;26.15;60.47;99173.44;5048813;28;20206;-55
2022/07/06 04:00:58;;;;;;;13.05;11.40;;;;;;;27.08;56.82;99184.41;5045249;28;20614;-55
2022/07/06 04:03:25;;;;;;;8.40;6.93;;;;;;;27.75;54.19;99176.59;5045708;28;20279;-56
2022/07/06 04:05:52;;;;;;;10.75;7.05;;;;;;;28.39;52.15;99180.41;5047769;28;20196;-55
2022/07/06 04:08:19;;;;;;;11.00;8.80;;;;;;;29.10;49.94;99185.91;5051105;28;20188;-56
2022/07/06 04:10:46;;;;;;;10.13;9.07;;;;;;;29.47;49.97;99171.94;5051504;28;20271;-56
2022/07/06 04:13:14;;;;;;;8.50;7.85;;;;;;;29.30;51.35;99181.00;5061213;28;20199;-56
2022/07/06 04:15:41;;;;;;;14.77;8.77;;;;;;;28.80;53.26;99173.25;5065034;28;20206;-55
2022/07/06 04:18:08;;;;;;;10.60;9.77;;;;;;;28.47;54.94;99183.09;5062232;28;20215;-56
2022/07/06 04:20:35;;;;;;;12.43;10.30;;;;;;;28.51;55.83;99181.75;5060530;28;20192;-55
2022/07/06 04:23:02;;;;;;;12.60;11.50;;;;;;;28.95;54.26;99186.78;5056847;28;20203;-55
2022/07/06 04:25:29;;;;;;;9.90;9.18;;;;;;;29.11;54.39;99192.09;5057029;28;20683;-55
2022/07/06 04:27:56;;;;;;;12.18;11.20;;;;;;;29.05;54.59;99187.41;5054293;28;20197;-56
2022/07/06 04:30:25;;;;;;;11.23;10.20;;;;;;;29.68;53.27;99189.28;5055810;28;20583;-56
2022/07/06 04:32:52;;;;;;;12.32;11.23;;;;;;;30.51;50.87;99192.13;5053370;28;20198;-55
2022/07/06 04:35:19;;;;;;;10.48;9.30;;;;;;;31.53;48.39;99193.34;5061444;28;20319;-55
2022/07/06 04:37:46;;;;;;;10.02;9.10;;;;;;;31.54;48.14;99181.59;5059623;28;20231;-56
2022/07/06 04:40:13;;;;;;;13.77;9.23;;;;;;;31.14;49.22;99194.47;5056800;28;20243;-56
2022/07/06 04:42:40;;;;;;;9.95;8.90;;;;;;;30.23;51.63;99181.97;5038057;28;20216;-60
2022/07/06 04:45:08;;;;;;;10.75;9.68;;;;;;;29.86;53.45;99188.00;5044026;28;20723;-60
2022/07/06 04:47:36;;;;;;;9.90;8.95;;;;;;;29.78;54.15;99190.72;5052229;28;20208;-59
2022/07/06 04:50:04;;;;;;;10.48;8.73;;;;;;;30.27;52.73;99183.25;5057625;28;20718;-58
2022/07/06 04:52:31;;;;;;;9.65;8.95;;;;;;;30.57;51.68;99186.94;5059788;28;20207;-61
2022/07/06 04:54:58;;;;;;;9.50;8.60;;;;;;;30.75;51.12;99188.44;5059587;28;20200;-61
2022/07/06 04:57:26;;;;;;;15.35;9.38;;;;;;;30.33;52.48;99190.59;5063537;28;20196;-61
2022/07/06 04:59:53;;;;;;;9.50;8.73;;;;;;;29.67;54.21;99184.94;5058577;28;20196;-60
2022/07/06 05:02:20;;;;;;;9.38;8.55;;;;;;;29.05;56.68;99182.91;5062955;28;20245;-60
2022/07/06 05:04:48;;;;;;;9.90;9.00;;;;;;;28.67;58.83;99183.59;5061988;28;20227;-56
2022/07/06 05:07:15;;;;;;;9.77;8.75;;;;;;;28.38;59.95;99181.41;5058781;28;20197;-57
2022/07/06 05:09:42;;;;;;;23.63;9.90;;;;;;;28.18;60.92;99181.72;5057259;28;20226;-55
2022/07/06 05:12:11;;;;;;;26.17;9.90;;;;;;;28.00;61.72;99178.31;5051557;28;20192;-55
2022/07/06 05:14:38;;;;;;;16.63;9.43;;;;;;;28.02;62.21;99184.31;5051372;28;20607;-57
2022/07/06 05:17:05;;;;;;;10.63;9.73;;;;;;;28.15;62.32;99184.69;5051126;28;20196;-56
2022/07/06 05:19:32;;;;;;;11.57;9.75;;;;;;;28.33;61.21;99189.91;5049617;28;20604;-55
2022/07/06 05:22:00;;;;;;;9.68;8.68;;;;;;;28.20;62.24;99188.75;5051871;28;20201;-61
2022/07/06 05:24:27;;;;;;;15.35;9.48;;;;;;;28.38;61.71;99202.78;5052272;28;20197;-60
2022/07/06 05:26:54;;;;;;;10.10;9.00;;;;;;;28.27;61.17;99198.59;5052591;28;20197;-61
2022/07/06 05:29:21;;;;;;;9.75;8.75;;;;;;;28.06;61.80;99203.53;5052710;28;20571;-60
2022/07/06 05:31:48;;;;;;;15.25;9.23;;;;;;;28.22;61.88;99202.75;5043061;28;20217;-61
2022/07/06 05:34:15;;;;;;;9.70;8.75;;;;;;;28.49;61.00;99205.13;5052189;28;20226;-60
2022/07/06 05:36:42;;;;;;;14.38;9.57;;;;;;;28.80;59.81;99213.31;5071383;28;20232;-60
2022/07/06 05:39:10;;;;;;;9.77;9.05;;;;;;;28.69;59.54;99211.78;5064688;28;20216;-60
2022/07/06 05:41:37;;;;;;;9.65;8.77;;;;;;;29.05;58.90;99220.31;5058679;28;20196;-61
2022/07/06 05:44:05;;;;;;;9.15;8.40;;;;;;;29.06;58.69;99215.81;5051593;28;20275;-56
2022/07/06 05:46:31;;;;;;;10.05;9.15;;;;;;;28.92;59.54;99221.84;5051556;28;20666;-56
2022/07/06 05:51:42;;;;;;;9.50;8.75;;;;;;;28.39;62.51;99223.13;5060319;28;20697;-57
2022/07/06 05:54:11;;;;;;;10.48;9.50;;;;;;;28.51;61.78;99216.47;5065500;28;20210;-57
2022/07/06 05:56:38;;;;;;;9.48;8.68;;;;;;;28.50;62.08;99225.47;5071706;28;20196;-56
2022/07/06 05:59:05;;;;;;;10.60;9.50;;;;;;;28.52;62.01;99227.00;5071357;28;20202;-56
2022/07/06 06:01:31;;;;;;;11.52;9.20;;;;;;;29.12;59.74;99229.31;5071452;28;20298;-56
2022/07/06 06:03:59;;;;;;;13.82;8.63;;;;;;;29.44;57.85;99236.50;5071186;28;20206;-56
2022/07/06 06:06:26;;;;;;;10.52;8.70;;;;;;;29.80;56.82;99239.53;5071349;28;20210;-56
2022/07/06 06:08:54;;;;;;;10.18;8.50;;;;;;;30.27;55.52;99246.69;5070924;28;20294;-55
2022/07/06 06:11:22;;;;;;;8.63;8.02;;;;;;;31.29;52.27;99243.56;5070877;28;20228;-56
2022/07/06 06:13:49;;;;;;;8.82;8.13;;;;;;;32.59;48.51;99246.50;5070818;28;20202;-57
2022/07/06 06:16:16;;;;;;;8.50;7.45;;;;;;;33.50;45.72;99249.16;5071044;28;20218;-57
2022/07/06 06:18:43;;;;;;;8.15;7.53;;;;;;;34.34;44.20;99251.66;5070896;28;20251;-56
2022/07/06 06:21:11;;;;;;;8.57;7.85;;;;;;;34.98;42.24;99253.84;5071062;28;20707;-57
2022/07/06 06:23:38;;;;;;;8.90;8.10;;;;;;;35.33;41.08;99261.75;5070748;28;20204;-56
2022/07/06 06:26:05;;;;;;;9.45;8.50;;;;;;;35.66;39.84;99263.34;5070741;28;20291;-56
2022/07/06 06:28:33;;;;;;;12.88;7.88;;;;;;;35.47;40.25;99263.38;5070618;28;20210;-57
2022/07/06 06:31:00;;;;;;;8.93;8.13;;;;;;;34.77;41.53;99251.34;5070510;28;20308;-57
2022/07/06 06:33:27;;;;;;;9.00;8.43;;;;;;;34.18;42.07;99250.13;5059275;28;20196;-56
2022/07/06 06:35:54;;;;;;;11.00;10.10;;;;;;;33.75;43.42;99249.50;5060607;28;20193;-57
2022/07/06 06:38:25;;;;;;;10.52;9.10;;;;;;;32.73;46.05;99248.34;5056363;28;20224;-56
2022/07/06 06:40:52;;;;;;;10.27;9.07;;;;;;;32.24;46.83;99245.50;5058082;28;20653;-56
2022/07/06 06:43:19;;;;;;;10.05;9.05;;;;;;;32.47;47.12;99246.19;5050532;28;20192;-57
2022/07/06 06:45:47;;;;;;;9.40;8.70;;;;;;;32.55;46.61;99245.22;5050440;28;20204;-57
2022/07/06 06:48:14;;;;;;;10.35;9.38;;;;;;;32.68;45.69;99248.03;5050563;28;20199;-57
2022/07/06 06:50:41;;;;;;;11.95;9.48;;;;;;;32.38;46.77;99239.28;5046848;28;20220;-62
2022/07/06 06:53:08;;;;;;;14.82;13.30;;;;;;;32.32;47.02;99248.06;5030755;28;20201;-61
2022/07/06 06:55:36;;;;;;;10.52;9.45;;;;;;;32.40;46.56;99246.09;5030608;28;20197;-63
2022/07/06 06:58:03;;;;;;;13.25;11.90;;;;;;;33.22;45.19;99250.16;5030503;28;20292;-62
2022/07/06 07:00:30;;;;;;;15.32;10.05;;;;;;;33.74;43.04;99247.84;5030521;28;20193;-60
2022/07/06 07:02:58;;;;;;;10.32;9.27;;;;;;;33.98;42.81;99245.69;5030301;28;20212;-61
2022/07/06 07:05:25;;;;;;;11.60;10.70;;;;;;;33.70;46.19;99243.06;5030394;28;20197;-60
2022/07/06 07:07:54;;;;;;;12.68;11.45;;;;;;;33.04;45.01;99248.81;5030178;28;20208;-59
2022/07/06 07:10:21;;;;;;;10.38;9.25;;;;;;;32.81;45.24;99237.44;5030074;28;20228;-60
2022/07/06 07:12:49;;;;;;;10.88;10.00;;;;;;;33.08;45.11;99236.63;5030125;28;20201;-60
2022/07/06 07:15:17;;;;;;;12.75;11.48;;;;;;;33.17;45.22;99231.94;5030088;28;20201;-60
2022/07/06 07:17:44;;;;;;;12.63;11.15;;;;;;;33.71;44.55;99237.47;5030038;28;20193;-60
2022/07/06 07:20:13;;;;;;;12.18;10.25;;;;;;;33.52;44.04;99233.63;5044060;28;20599;-60
2022/07/06 07:22:40;;;;;;;13.38;12.13;;;;;;;33.10;44.68;99223.81;5054934;28;20580;-59
2022/07/06 07:25:08;;;;;;;16.45;11.35;;;;;;;32.48;46.87;99231.72;5049778;28;20204;-59
2022/07/06 07:27:35;;;;;;;12.60;11.38;;;;;;;32.77;45.25;99236.97;5049932;28;20192;-58
2022/07/06 07:30:02;;;;;;;15.95;11.98;;;;;;;33.13;44.08;99239.56;5049469;28;20692;-60
2022/07/06 07:32:29;;;;;;;14.38;10.68;;;;;;;33.82;44.05;99228.84;5049616;28;20207;-56
2022/07/06 07:34:55;;;;;;;10.48;9.45;;;;;;;34.06;42.06;99232.06;5049659;28;20196;-57
2022/07/06 07:37:24;;;;;;;10.60;9.52;;;;;;;33.51;44.64;99236.53;5049504;28;20314;-57
2022/07/06 07:39:51;;;;;;;12.23;10.13;;;;;;;32.89;44.87;99231.91;5049964;28;20192;-56
2022/07/06 07:42:18;;;;;;;11.30;10.38;;;;;;;32.49;45.68;99221.81;5049723;28;20200;-56
2022/07/06 07:44:44;;;;;;;12.15;11.05;;;;;;;32.68;44.54;99231.91;5049392;28;20201;-56
2022/07/06 07:47:11;;;;;;;11.30;10.55;;;;;;;32.50;45.19;99229.69;5048999;28;20197;-57
2022/07/06 07:49:38;;;;;;;11.93;10.77;;;;;;;32.11;45.72;99240.78;5049627;28;20196;-60
2022/07/06 07:52:06;;;;;;;13.70;11.55;;;;;;;31.80;46.45;99241.03;5049307;28;20311;-60
2022/07/06 07:54:34;;;;;;;14.75;11.45;;;;;;;31.50;47.89;99236.66;5049371;28;20204;-61
2022/07/06 07:57:01;;;;;;;12.35;11.25;;;;;;;31.08;48.64;99227.34;5049323;28;20207;-61
2022/07/06 07:59:28;;;;;;;13.68;10.57;;;;;;;31.04;48.71;99232.22;5059785;28;20288;-61
2022/07/06 08:01:55;;;;;;;18.42;12.32;;;;;;;30.68;50.54;99228.53;5058095;28;20195;-62
2022/07/06 08:04:22;;;;;;;13.15;11.57;;;;;;;30.87;50.29;99229.88;5069586;28;20206;-62
2022/07/06 08:06:49;;;;;;;12.75;11.65;;;;;;;30.78;50.38;99225.59;5069586;28;20206;-61
2022/07/06 08:09:16;;;;;;;12.80;11.70;;;;;;;30.76;50.78;99220.44;5069610;28;20218;-62
2022/07/06 08:11:45;;;;;;;22.88;12.05;;;;;;;31.10;51.09;99219.16;5069150;28;20220;-61
2022/07/06 08:14:14;;;;;;;19.48;11.73;;;;;;;31.10;50.44;99225.34;5058085;28;20539;-61
2022/07/06 08:16:41;;;;;;;13.48;10.85;;;;;;;31.17;50.01;99214.69;5049274;28;20232;-61
2022/07/06 08:19:08;;;;;;;12.27;11.10;;;;;;;31.11;49.93;99226.19;5049374;28;20227;-61
2022/07/06 08:21:35;;;;;;;13.07;11.75;;;;;;;31.34;50.29;99224.25;5049329;28;20288;-61
2022/07/06 08:24:03;;;;;;;12.93;11.60;;;;;;;31.06;49.99;99224.00;5055882;28;20661;-62
2022/07/06 08:26:30;;;;;;;12.48;11.45;;;;;;;31.18;49.97;99221.75;5059868;28;20192;-62
2022/07/06 08:28:59;;;;;;;12.57;11.25;;;;;;;31.15;50.36;99214.09;5056980;28;20202;-61
2022/07/06 08:31:27;;;;;;;12.48;11.38;;;;;;;32.00;48.05;99209.06;5057107;28;20219;-56
2022/07/06 08:33:54;;;;;;;12.48;11.15;;;;;;;33.14;46.32;99221.56;5054741;28;20197;-56
2022/07/06 08:36:21;;;;;;;14.15;10.70;;;;;;;33.27;44.56;99224.38;5058499;28;20579;-57
2022/07/06 08:38:48;;;;;;;12.15;10.88;;;;;;;32.88;45.31;99213.28;5059649;28;20805;-63
2022/07/06 08:41:16;;;;;;;11.25;10.35;;;;;;;33.17;44.75;99194.28;5057373;28;20275;-62
2022/07/06 08:43:43;;;;;;;11.20;10.25;;;;;;;33.98;43.53;99216.88;5051286;28;20800;-56
2022/07/06 08:46:14;;;;;;;15.63;10.93;;;;;;;34.71;41.48;99219.78;5054375;28;20222;-61
2022/07/06 08:48:42;;;;;;;11.43;10.60;;;;;;;34.86;40.84;99215.88;5059492;28;20702;-62
2022/07/06 08:51:09;;;;;;;11.73;10.65;;;;;;;34.24;42.13;99218.84;5058135;28;20611;-62
2022/07/06 08:53:37;;;;;;;11.93;10.98;;;;;;;33.83;42.40;99214.38;5059854;28;20203;-61
2022/07/06 08:56:04;;;;;;;12.50;10.18;;;;;;;33.69;42.35;99226.06;5066802;28;20210;-62
2022/07/06 08:58:33;;;;;;;12.00;11.13;;;;;;;33.57;43.94;99221.44;5056862;28;20212;-61
2022/07/06 09:01:00;;;;;;;11.60;10.60;;;;;;;33.26;42.83;99224.56;5054243;28;20214;-62
2022/07/06 09:03:29;;;;;;;11.65;10.88;;;;;;;32.76;44.60;99213.81;5058106;28;20193;-62
2022/07/06 09:06:01;;;;;;;12.23;11.23;;;;;;;32.36;45.77;99215.28;5052902;28;20215;-62
2022/07/06 09:08:29;;;;;;;11.55;10.75;;;;;;;32.15;46.71;99217.91;5051674;28;20213;-62
2022/07/06 09:10:56;;;;;;;22.13;14.75;;;;;;;31.64;48.76;99215.22;5051448;28;20705;-57
2022/07/06 09:13:23;;;;;;;13.20;12.30;;;;;;;31.22;49.64;99213.16;5052050;28;20204;-57
2022/07/06 09:15:50;;;;;;;12.60;11.73;;;;;;;31.04;50.67;99220.66;5058420;28;20284;-57
2022/07/06 09:18:17;;;;;;;15.55;14.10;;;;;;;30.88;52.04;99226.19;5053097;28;20204;-57
2022/07/06 09:20:45;;;;;;;13.93;12.55;;;;;;;30.92;51.62;99225.66;5063470;28;20196;-56
2022/07/06 09:23:17;;;;;;;13.75;12.73;;;;;;;30.83;52.21;99217.84;5060544;28;20219;-56
2022/07/06 09:25:48;;;;;;;14.80;13.52;;;;;;;30.71;52.61;99219.28;5060965;28;20254;-57
2022/07/06 09:28:15;;;;;;;15.80;13.65;;;;;;;30.62;53.16;99216.69;5058623;28;20192;-63
2022/07/06 09:30:43;;;;;;;16.08;14.48;;;;;;;30.52;53.66;99223.25;5061309;28;20583;-62
2022/07/06 09:33:12;;;;;;;15.30;13.68;;;;;;;30.24;54.84;99218.44;5062417;28;20195;-62
2022/07/06 09:35:39;;;;;;;14.13;13.10;;;;;;;30.46;53.96;99216.78;5062692;28;20761;-57
2022/07/06 09:38:10;;;;;;;14.25;13.18;;;;;;;30.52;53.96;99209.88;5062035;28;20596;-57
2022/07/06 09:40:38;;;;;;;14.32;13.07;;;;;;;30.56;54.57;99212.06;5057884;28;20203;-56
2022/07/06 09:43:10;;;;;;;14.35;13.07;;;;;;;30.47;53.80;99212.25;5057072;28;20287;-56
2022/07/06 09:45:39;;;;;;;15.13;13.98;;;;;;;30.56;54.07;99205.88;5059265;28;20207;-62
2022/07/06 09:48:08;;;;;;;15.32;14.02;;;;;;;30.42;55.09;99209.28;5057458;28;20202;-62
2022/07/06 09:50:39;;;;;;;14.30;12.88;;;;;;;30.37;54.03;99199.09;5061037;28;20599;-62
2022/07/06 09:53:08;;;;;;;14.23;12.82;;;;;;;30.40;53.98;99200.59;5057377;28;20284;-62
2022/07/06 09:55:35;;;;;;;14.57;13.20;;;;;;;30.47;53.47;99198.88;5071280;28;20242;-62
2022/07/06 09:58:02;;;;;;;13.43;12.23;;;;;;;30.54;53.97;99197.16;5071768;28;20204;-62
2022/07/06 10:00:29;;;;;;;12.98;11.85;;;;;;;30.32;52.54;99196.97;5071544;28;20202;-57
2022/07/06 10:02:56;;;;;;;14.05;10.85;;;;;;;30.08;53.63;99191.75;5071281;28;20188;-58
2022/07/06 10:05:29;;;;;;;12.68;11.77;;;;;;;30.26;53.23;99183.44;5071453;28;20204;-57
2022/07/06 10:07:58;;;;;;;12.63;11.52;;;;;;;30.55;53.26;99180.09;5071164;28;20192;-56
2022/07/06 10:10:29;;;;;;;12.85;11.60;;;;;;;30.93;51.93;99188.94;5068811;28;20188;-58
2022/07/06 10:12:57;;;;;;;11.90;10.90;;;;;;;31.20;51.16;99180.31;5058649;28;20331;-58
2022/07/06 10:15:26;;;;;;;14.27;11.88;;;;;;;31.31;50.18;99168.31;5051183;28;20195;-57
2022/07/06 10:17:55;;;;;;;14.45;12.05;;;;;;;31.46;49.98;99187.91;5060588;28;20191;-57
2022/07/06 10:20:23;;;;;;;12.35;10.68;;;;;;;31.68;48.55;99178.94;5059454;28;20593;-56
2022/07/06 10:22:51;;;;;;;12.52;11.55;;;;;;;31.86;48.96;99178.53;5063082;28;20193;-56
2022/07/06 10:25:19;;;;;;;15.82;12.18;;;;;;;31.78;48.58;99177.81;5058334;28;20242;-56
2022/07/06 10:27:48;;;;;;;11.50;10.70;;;;;;;31.85;48.47;99174.19;5060169;28;20203;-62
2022/07/06 10:30:16;;;;;;;12.68;11.52;;;;;;;31.77;47.36;99176.97;5060673;28;20193;-62
2022/07/06 10:32:46;;;;;;;12.57;11.43;;;;;;;31.80;47.23;99175.78;5056458;28;20216;-62
2022/07/06 10:35:14;;;;;;;11.60;10.57;;;;;;;31.95;47.15;99168.50;5058949;28;20610;-57
2022/07/06 10:37:41;;;;;;;11.93;11.10;;;;;;;31.85;46.45;99166.13;5054857;28;20266;-57
2022/07/06 10:42:59;;;;;;;13.45;12.02;;;;;;;32.25;46.60;99161.22;5058382;28;20323;-57
2022/07/06 10:45:54;;;;;;;11.50;10.68;;;;;;;32.41;46.03;99156.41;5056058;28;20189;-58
2022/07/06 10:48:22;;;;;;;12.32;11.18;;;;;;;32.58;45.25;99162.38;5059990;28;20203;-58
2022/07/06 10:50:51;;;;;;;10.82;9.88;;;;;;;32.90;45.27;99161.00;5058836;28;20192;-58
2022/07/06 10:53:19;;;;;;;10.45;9.75;;;;;;;32.88;43.61;99154.16;5063656;28;20220;-62
2022/07/06 10:55:47;;;;;;;10.25;9.40;;;;;;;32.86;43.04;99165.09;5070495;28;20282;-62
2022/07/06 10:58:16;;;;;;;15.50;9.90;;;;;;;32.90;43.10;99150.25;5058558;28;20200;-62
2022/07/06 11:00:53;;;;;;;11.20;10.30;;;;;;;33.10;43.04;99161.13;5056229;28;20191;-63
2022/07/06 11:03:37;;;;;;;11.77;10.77;;;;;;;33.19;42.95;99158.06;5058538;28;20190;-62
2022/07/06 11:06:08;;;;;;;10.68;9.98;;;;;;;33.33;41.98;99155.50;5058367;28;20207;-62
2022/07/06 11:08:49;;;;;;;10.93;10.05;;;;;;;32.93;41.98;99151.72;5050162;28;20589;-62
2022/07/06 11:11:17;;;;;;;11.25;10.38;;;;;;;32.91;42.23;99153.75;5049966;28;20200;-56
2022/07/06 11:13:50;;;;;;;9.98;9.05;;;;;;;32.88;41.31;99135.31;5050046;28;20687;-57
2022/07/06 11:16:17;;;;;;;9.35;8.60;;;;;;;32.97;39.67;99153.78;5052440;28;20185;-56
2022/07/06 11:18:48;;;;;;;9.77;9.07;;;;;;;32.79;40.63;99151.63;5054470;28;20676;-56
2022/07/06 11:21:20;;;;;;;10.20;9.30;;;;;;;32.76;40.45;99143.09;5048972;28;20219;-62
2022/07/06 11:23:49;;;;;;;10.70;9.90;;;;;;;32.89;41.02;99137.81;5050087;28;20726;-62
2022/07/06 11:26:17;;;;;;;9.65;9.05;;;;;;;33.01;40.19;99138.94;5049979;28;20250;-63
2022/07/06 11:28:48;;;;;;;10.63;9.55;;;;;;;33.07;40.55;99119.31;5049769;28;20207;-62
2022/07/06 11:31:16;;;;;;;10.13;9.23;;;;;;;33.32;40.18;99129.63;5049737;28;20204;-62
2022/07/06 11:33:47;;;;;;;11.10;10.10;;;;;;;33.39;40.89;99125.94;5049793;28;20694;-62
2022/07/06 11:36:19;;;;;;;10.00;9.32;;;;;;;33.17;40.31;99130.56;5049572;28;20192;-61